Time;durP1;ratioP1;P1;durP2;ratioP2;P2;SDS_P1;SDS_P2;PMS_P1;PMS_P2;Temp;Humidity;BMP_temperature;BMP_pressure;BME280_temperature;BME280_humidity;BME280_pressure;Samples;Min_cycle;Max_cycle;Signal;HPM_P1;HPM_P2
2022/12/17 13:06:43;;;;;;;;;;;;;;;;;;5012767;28;20037;-81
2022/12/17 13:09:14;;;;;;;14.27;4.88;;;;;;;;;;5016042;28;19965;-82
2022/12/17 13:11:43;;;;;;;7.47;4.88;;;;;;;;;;5003689;28;20042;-81
2022/12/17 13:14:23;;;;;;;20.95;8.43;;;;;;;;;;5020000;28;20053;-82
2022/12/17 13:17:07;;;;;;;9.20;4.53;;;;;;;;;;4998856;28;20041;-81
2022/12/17 13:19:39;;;;;;;17.70;8.25;;;;;;;;;;5011793;28;20029;-89
2022/12/17 13:22:14;;;;;;;10.15;4.32;;;;;;;;;;4999127;28;20428;-82
2022/12/17 13:24:45;;;;;;;11.02;6.97;;;;;;;;;;5016560;28;20030;-86
2022/12/17 13:27:31;;;;;;;28.75;7.72;;;;;;;;;;5001040;28;20097;-88
2022/12/17 13:30:16;;;;;;;22.58;9.75;;;;;;;;;;5013439;28;20542;-82
2022/12/17 13:33:08;;;;;;;13.00;8.85;;;;;;;;;;4977666;28;20038;-82
2022/12/17 13:35:56;;;;;;;13.95;9.68;;;;;;;;;;4997692;28;20036;-81
2022/12/17 13:38:44;;;;;;;8.77;6.70;;;;;;;;;;4996486;28;20084;-81
2022/12/17 13:41:15;;;;;;;13.95;8.43;;;;;;;;;;5015728;28;20034;-82
2022/12/17 13:43:56;;;;;;;18.13;9.53;;;;;;;;;;5012640;28;20034;-84
2022/12/17 13:46:49;;;;;;;15.35;8.32;;;;;;;;;;5011657;28;20262;-81
2022/12/17 13:49:23;;;;;;;29.08;11.52;;;;;;;;;;4997422;28;20038;-80
2022/12/17 13:52:16;;;;;;;27.35;12.15;;;;;;;;;;5011693;28;21033;-83
2022/12/17 13:54:42;;;;;;;18.60;7.55;;;;;;;;;;4985934;28;20030;-80
2022/12/17 13:57:17;;;;;;;21.02;10.70;;;;;;;;;;5015163;28;20097;-82
2022/12/17 13:59:57;;;;;;;16.10;9.93;;;;;;;;;;5014803;28;20029;-82
2022/12/17 14:02:31;;;;;;;19.38;10.75;;;;;;;;;;5010798;28;20021;-83
2022/12/17 14:05:01;;;;;;;19.90;9.20;;;;;;;;;;4998215;28;20037;-81
2022/12/17 14:07:28;;;;;;;13.88;8.60;;;;;;;;;;5013865;28;20080;-80
2022/12/17 14:09:55;;;;;;;18.65;9.07;;;;;;;;;;5016580;28;20053;-86
2022/12/17 14:12:24;;;;;;;17.50;9.82;;;;;;;;;;5013769;28;20026;-80
2022/12/17 14:15:01;;;;;;;15.27;9.25;;;;;;;;;;5014058;28;20544;-80
2022/12/17 14:17:35;;;;;;;18.92;8.20;;;;;;;;;;5014324;28;20037;-79
2022/12/17 14:20:09;;;;;;;13.95;9.75;;;;;;;;;;5014257;28;20033;-82
2022/12/17 14:22:41;;;;;;;14.55;9.52;;;;;;;;;;5020739;28;20025;-80
2022/12/17 14:25:14;;;;;;;;;;;;;;;;;;4997129;28;20085;-80
2022/12/17 14:27:48;;;;;;;15.55;7.55;;;;;;;;;;5008898;28;20728;-79
2022/12/17 14:30:36;;;;;;;14.38;7.70;;;;;;;;;;5007200;28;20018;-80
2022/12/17 14:33:03;;;;;;;14.70;9.35;;;;;;;;;;4978983;28;21981;-81
2022/12/17 14:35:32;;;;;;;19.88;9.65;;;;;;;;;;5007202;28;20041;-83
2022/12/17 14:37:58;;;;;;;19.85;9.52;;;;;;;;;;4990057;28;20036;-80
2022/12/17 14:40:25;;;;;;;25.35;13.93;;;;;;;;;;4999772;28;20105;-81
2022/12/17 14:42:52;;;;;;;14.20;8.27;;;;;;;;;;5010611;28;20033;-81
2022/12/17 14:45:23;;;;;;;21.70;10.35;;;;;;;;;;4996332;28;20060;-81
2022/12/17 14:47:54;;;;;;;21.35;11.52;;;;;;;;;;4997319;28;20483;-80
2022/12/17 14:50:19;;;;;;;20.83;11.07;;;;;;;;;;4993694;28;20032;-84
2022/12/17 14:52:53;;;;;;;23.63;11.95;;;;;;;;;;5007286;28;20030;-81
2022/12/17 14:55:32;;;;;;;23.00;10.40;;;;;;;;;;5008243;28;20026;-78
2022/12/17 14:58:10;;;;;;;21.63;10.63;;;;;;;;;;4993477;28;20442;-79
2022/12/17 15:00:38;;;;;;;20.23;10.35;;;;;;;;;;5013116;28;20061;-79
2022/12/17 15:03:04;;;;;;;22.50;10.38;;;;;;;;;;5013576;28;20038;-80
2022/12/17 15:05:29;;;;;;;17.35;10.13;;;;;;;;;;5006141;28;20029;-79
2022/12/17 15:07:56;;;;;;;18.75;10.27;;;;;;;;;;5006292;28;20101;-83
2022/12/17 15:10:21;;;;;;;26.67;12.02;;;;;;;;;;4993353;28;20121;-82
2022/12/17 15:12:50;;;;;;;19.90;11.48;;;;;;;;;;4984074;28;20124;-81
2022/12/17 15:15:16;;;;;;;21.48;11.25;;;;;;;;;;4982749;28;20030;-80
2022/12/17 15:17:41;;;;;;;17.10;8.77;;;;;;;;;;4998059;28;20037;-79
2022/12/17 15:20:15;;;;;;;13.88;7.72;;;;;;;;;;5000704;28;20092;-82
2022/12/17 15:22:41;;;;;;;27.95;11.27;;;;;;;;;;4989591;28;20096;-80
2022/12/17 15:25:09;;;;;;;23.45;10.80;;;;;;;;;;4988190;28;20129;-81
2022/12/17 15:27:34;;;;;;;21.70;11.95;;;;;;;;;;4986987;28;20068;-87
2022/12/17 15:30:00;;;;;;;16.80;9.13;;;;;;;;;;4974851;28;22149;-80
2022/12/17 15:32:25;;;;;;;22.75;10.13;;;;;;;;;;4991960;28;20038;-80
2022/12/17 15:34:50;;;;;;;21.67;11.45;;;;;;;;;;4989144;28;20049;-78
2022/12/17 15:37:16;;;;;;;19.13;10.88;;;;;;;;;;4987713;28;20038;-77
2022/12/17 15:39:41;;;;;;;18.42;10.48;;;;;;;;;;4985375;28;20103;-78
2022/12/17 15:44:52;;;;;;;22.38;11.52;;;;;;;;;;4987088;28;20060;-79
2022/12/17 15:47:17;;;;;;;24.42;10.68;;;;;;;;;;4990673;28;20484;-79
2022/12/17 15:49:52;;;;;;;18.50;10.23;;;;;;;;;;4999596;28;20064;-88
2022/12/17 15:52:18;;;;;;;16.88;8.00;;;;;;;;;;4995940;28;20087;-82
2022/12/17 15:54:43;;;;;;;23.98;11.38;;;;;;;;;;4999230;28;20113;-80
2022/12/17 15:57:09;;;;;;;23.48;10.35;;;;;;;;;;5005701;28;20052;-78
2022/12/17 15:59:35;;;;;;;14.32;9.73;;;;;;;;;;4991660;28;20029;-78
2022/12/17 16:02:00;;;;;;;17.25;9.80;;;;;;;;;;4993309;28;20079;-78
2022/12/17 16:04:25;;;;;;;13.63;7.80;;;;;;;;;;4999785;28;20030;-78
2022/12/17 16:06:51;;;;;;;14.35;8.57;;;;;;;;;;5009843;28;20026;-78
2022/12/17 16:09:16;;;;;;;15.45;9.82;;;;;;;;;;5010097;28;20041;-78
2022/12/17 16:11:41;;;;;;;16.95;8.80;;;;;;;;;;5011992;28;20034;-78
2022/12/17 16:14:07;;;;;;;23.27;11.27;;;;;;;;;;4991878;28;20451;-87
2022/12/17 16:16:32;;;;;;;15.52;8.18;;;;;;;;;;4980547;28;20503;-78
2022/12/17 16:18:57;;;;;;;16.55;9.75;;;;;;;;;;4985950;28;20041;-78
2022/12/17 16:21:23;;;;;;;12.68;9.20;;;;;;;;;;4981115;28;20033;-85
2022/12/17 16:23:48;;;;;;;14.02;7.75;;;;;;;;;;4994147;28;20034;-78
2022/12/17 16:26:14;;;;;;;14.88;7.25;;;;;;;;;;5002684;28;20038;-78
2022/12/17 16:28:42;;;;;;;14.05;8.32;;;;;;;;;;4998413;28;20041;-77
2022/12/17 16:31:11;;;;;;;16.67;9.15;;;;;;;;;;4996078;28;20064;-79
2022/12/17 16:33:38;;;;;;;14.57;7.90;;;;;;;;;;4995524;28;20037;-79
2022/12/17 16:36:05;;;;;;;20.98;9.27;;;;;;;;;;4994349;28;20034;-80
2022/12/17 16:38:31;;;;;;;8.80;5.38;;;;;;;;;;5002259;28;20034;-79
2022/12/17 16:40:58;;;;;;;15.02;8.40;;;;;;;;;;5003488;28;20048;-80
2022/12/17 16:43:25;;;;;;;11.80;8.93;;;;;;;;;;5002897;28;20049;-79
2022/12/17 16:45:52;;;;;;;9.60;8.02;;;;;;;;;;5002551;28;20037;-77
2022/12/17 16:48:18;;;;;;;14.07;7.88;;;;;;;;;;4997232;28;20476;-80
2022/12/17 16:50:44;;;;;;;12.50;8.18;;;;;;;;;;4978931;28;20046;-79
2022/12/17 16:53:10;;;;;;;17.05;9.13;;;;;;;;;;4984142;28;20044;-79
2022/12/17 16:55:47;;;;;;;13.75;7.57;;;;;;;;;;5004132;28;20034;-76
2022/12/17 16:58:16;;;;;;;10.02;6.97;;;;;;;;;;5005442;28;20101;-78
2022/12/17 17:00:42;;;;;;;20.05;9.73;;;;;;;;;;5004727;28;20463;-78
2022/12/17 17:03:08;;;;;;;13.88;8.38;;;;;;;;;;4986403;28;20248;-79
2022/12/17 17:05:35;;;;;;;21.60;9.45;;;;;;;;;;5007732;28;20492;-85
2022/12/17 17:08:01;;;;;;;15.65;9.60;;;;;;;;;;4997768;28;20048;-77
2022/12/17 17:10:28;;;;;;;14.93;8.82;;;;;;;;;;4999801;28;20050;-86
2022/12/17 17:12:54;;;;;;;14.15;8.23;;;;;;;;;;4989592;28;20038;-81
2022/12/17 17:15:21;;;;;;;16.65;9.75;;;;;;;;;;4997823;28;20040;-78
2022/12/17 17:17:46;;;;;;;29.27;12.25;;;;;;;;;;4980484;28;20076;-86
2022/12/17 17:20:12;;;;;;;14.40;7.93;;;;;;;;;;4980077;28;20080;-80
2022/12/17 17:22:37;;;;;;;24.63;13.27;;;;;;;;;;4994914;28;20048;-79
2022/12/17 17:25:03;;;;;;;20.35;9.85;;;;;;;;;;4993276;28;20109;-78
2022/12/17 17:27:29;;;;;;;28.85;9.60;;;;;;;;;;4994379;28;20037;-80
2022/12/17 17:29:55;;;;;;;14.45;8.82;;;;;;;;;;4996110;28;20357;-77
2022/12/17 17:32:21;;;;;;;18.88;10.82;;;;;;;;;;4976126;28;20397;-77
2022/12/17 17:34:46;;;;;;;18.15;10.95;;;;;;;;;;4995222;28;20120;-80
2022/12/17 17:37:12;;;;;;;19.50;9.27;;;;;;;;;;4992459;28;20097;-79
2022/12/17 17:39:37;;;;;;;19.25;9.30;;;;;;;;;;4982002;28;20068;-79
2022/12/17 17:42:03;;;;;;;20.15;10.88;;;;;;;;;;5009251;28;20066;-80
2022/12/17 17:44:29;;;;;;;23.90;10.13;;;;;;;;;;4983708;28;20030;-88
2022/12/17 17:46:54;;;;;;;13.95;7.78;;;;;;;;;;4984478;28;20038;-87
2022/12/17 17:49:21;;;;;;;17.58;9.55;;;;;;;;;;4979951;28;20030;-86
2022/12/17 17:51:46;;;;;;;21.10;10.93;;;;;;;;;;5003467;28;20045;-83
2022/12/17 17:54:18;;;;;;;14.98;8.57;;;;;;;;;;5010217;28;20026;-90
2022/12/17 17:56:44;;;;;;;13.65;8.65;;;;;;;;;;4996835;28;20037;-86
2022/12/17 17:59:12;;;;;;;22.48;9.27;;;;;;;;;;5015772;28;20034;-86
2022/12/17 18:01:41;;;;;;;18.00;10.38;;;;;;;;;;5003455;28;20036;-87
2022/12/17 18:04:10;;;;;;;19.00;10.02;;;;;;;;;;5027218;28;20033;-86
2022/12/17 18:06:56;;;;;;;11.85;8.45;;;;;;;;;;5025557;28;20030;-88
2022/12/17 18:09:22;;;;;;;19.17;10.88;;;;;;;;;;5006224;28;20528;-89
2022/12/17 18:11:47;;;;;;;18.13;10.70;;;;;;;;;;4992282;28;20026;-87
2022/12/17 18:14:13;;;;;;;24.20;12.02;;;;;;;;;;5007552;28;20036;-86
2022/12/17 18:16:44;;;;;;;24.45;11.23;;;;;;;;;;4990371;28;20506;-87
2022/12/17 18:19:13;;;;;;;22.33;9.88;;;;;;;;;;5001074;28;20033;-88
2022/12/17 18:21:39;;;;;;;11.85;7.82;;;;;;;;;;5012721;28;20549;-84
2022/12/17 18:24:08;;;;;;;16.73;10.43;;;;;;;;;;4977529;28;20073;-85
2022/12/17 18:26:38;;;;;;;21.17;8.57;;;;;;;;;;4999649;28;20517;-85
2022/12/17 18:29:25;;;;;;;19.95;8.25;;;;;;;;;;4983182;28;20021;-87
2022/12/17 18:31:51;;;;;;;20.70;10.95;;;;;;;;;;4994378;28;20026;-84
2022/12/17 18:34:19;;;;;;;19.20;9.68;;;;;;;;;;5000872;28;20095;-85
2022/12/17 18:36:45;;;;;;;28.38;13.38;;;;;;;;;;4999386;28;20060;-83
2022/12/17 18:39:17;;;;;;;21.10;9.57;;;;;;;;;;5008098;28;20033;-84
2022/12/17 18:44:28;;;;;;;23.38;12.80;;;;;;;;;;5014442;28;20093;-84
2022/12/17 18:46:54;;;;;;;27.85;9.32;;;;;;;;;;4990968;28;20039;-83
2022/12/17 18:49:21;;;;;;;28.58;11.57;;;;;;;;;;4986390;28;20033;-79
2022/12/17 18:51:48;;;;;;;17.73;11.07;;;;;;;;;;4975188;28;20026;-81
2022/12/17 18:54:21;;;;;;;23.80;13.20;;;;;;;;;;4985134;28;20472;-80
2022/12/17 18:56:47;;;;;;;15.18;8.98;;;;;;;;;;4999960;28;20077;-82
2022/12/17 18:59:17;;;;;;;30.98;10.65;;;;;;;;;;4978112;28;20488;-82
2022/12/17 19:01:43;;;;;;;16.42;9.68;;;;;;;;;;4971866;28;20026;-81
2022/12/17 19:04:11;;;;;;;13.82;9.52;;;;;;;;;;5009230;28;20062;-83
2022/12/17 19:06:37;;;;;;;14.45;7.35;;;;;;;;;;4989894;28;20697;-85
2022/12/17 19:09:05;;;;;;;14.55;8.40;;;;;;;;;;5007084;28;20042;-83
2022/12/17 19:11:30;;;;;;;23.88;11.60;;;;;;;;;;4987476;28;20029;-83
2022/12/17 19:13:56;;;;;;;20.60;9.52;;;;;;;;;;4985051;28;20467;-84
2022/12/17 19:16:24;;;;;;;30.75;13.15;;;;;;;;;;4997125;28;20933;-83
2022/12/17 19:18:51;;;;;;;23.13;13.00;;;;;;;;;;4981960;28;20096;-86
2022/12/17 19:21:18;;;;;;;31.10;20.70;;;;;;;;;;4982756;28;20029;-87
2022/12/17 19:23:44;;;;;;;25.38;12.13;;;;;;;;;;5003852;28;20034;-84
2022/12/17 19:26:14;;;;;;;15.77;11.05;;;;;;;;;;4987853;28;20034;-84
2022/12/17 19:28:40;;;;;;;10.63;8.20;;;;;;;;;;5033482;22;20045;-82
2022/12/17 19:31:07;;;;;;;19.48;10.57;;;;;;;;;;5013167;28;20652;-78
2022/12/17 19:33:32;;;;;;;28.65;13.75;;;;;;;;;;5051753;28;20048;-76
2022/12/17 19:36:23;;;;;;;24.95;12.52;;;;;;;;;;5053598;28;20036;-76
2022/12/17 19:38:53;;;;;;;14.50;9.90;;;;;;;;;;5030567;28;20080;-77
2022/12/17 19:41:20;;;;;;;22.98;10.93;;;;;;;;;;5044397;28;20151;-79
2022/12/17 19:43:47;;;;;;;14.57;8.10;;;;;;;;;;5020184;28;20035;-84
2022/12/17 19:46:15;;;;;;;11.55;8.27;;;;;;;;;;5041202;28;20039;-82
2022/12/17 19:48:41;;;;;;;11.93;7.82;;;;;;;;;;5041421;28;20025;-83
2022/12/17 19:51:09;;;;;;;15.55;7.97;;;;;;;;;;5039492;28;20033;-85
2022/12/17 19:53:36;;;;;;;16.65;10.02;;;;;;;;;;5039932;28;20029;-81
2022/12/17 19:56:13;;;;;;;23.70;9.38;;;;;;;;;;5027873;28;20081;-82
2022/12/17 19:58:40;;;;;;;10.23;6.80;;;;;;;;;;5038789;28;20043;-81
2022/12/17 20:01:13;;;;;;;13.05;8.50;;;;;;;;;;5024597;28;20029;-80
2022/12/17 20:03:40;;;;;;;21.08;9.07;;;;;;;;;;5046498;28;20040;-81
2022/12/17 20:06:07;;;;;;;21.65;9.55;;;;;;;;;;5048995;28;20045;-81
2022/12/17 20:08:33;;;;;;;24.20;10.90;;;;;;;;;;5075451;22;20041;-86
2022/12/17 20:11:03;;;;;;;16.90;10.27;;;;;;;;;;5049802;28;20093;-84
2022/12/17 20:13:28;;;;;;;12.02;8.48;;;;;;;;;;5031703;28;20108;-84
2022/12/17 20:16:02;;;;;;;17.63;8.43;;;;;;;;;;5057429;28;20075;-83
2022/12/17 20:18:27;;;;;;;12.63;8.23;;;;;;;;;;5037813;28;20033;-86
2022/12/17 20:21:04;;;;;;;24.27;10.30;;;;;;;;;;5040816;28;20033;-85
2022/12/17 20:23:30;;;;;;;19.30;10.52;;;;;;;;;;5043652;28;20479;-86
2022/12/17 20:26:04;;;;;;;16.88;6.60;;;;;;;;;;5041139;28;20028;-87
2022/12/17 20:28:31;;;;;;;21.58;9.45;;;;;;;;;;5048325;28;20025;-88
2022/12/17 20:30:56;;;;;;;12.90;9.38;;;;;;;;;;5056364;28;20020;-90
2022/12/17 20:33:22;;;;;;;18.10;8.55;;;;;;;;;;5063752;28;20037;-88
2022/12/17 20:35:48;;;;;;;31.35;9.85;;;;;;;;;;5063084;28;20013;-89
2022/12/17 20:38:14;;;;;;;15.30;7.82;;;;;;;;;;5046177;28;20059;-86
2022/12/17 20:40:40;;;;;;;14.73;7.05;;;;;;;;;;5065785;28;20036;-87
2022/12/17 20:43:07;;;;;;;25.38;8.68;;;;;;;;;;5049209;28;20021;-89
2022/12/17 20:45:49;;;;;;;14.75;8.27;;;;;;;;;;5049824;28;20036;-87
2022/12/17 20:48:16;;;;;;;24.15;10.57;;;;;;;;;;5067922;28;20045;-87
2022/12/17 20:50:43;;;;;;;18.40;10.52;;;;;;;;;;5067912;28;20029;-87
2022/12/17 20:53:10;;;;;;;16.27;9.43;;;;;;;;;;5067144;28;20100;-86
2022/12/17 20:55:39;;;;;;;19.98;9.27;;;;;;;;;;5043470;28;20029;-88
2022/12/17 20:58:05;;;;;;;19.38;10.25;;;;;;;;;;5045227;28;20033;-87
2022/12/17 21:00:34;;;;;;;16.52;9.10;;;;;;;;;;5059676;28;20426;-87
2022/12/17 21:03:02;;;;;;;12.38;6.95;;;;;;;;;;5043989;28;21363;-86
2022/12/17 21:05:30;;;;;;;9.95;7.05;;;;;;;;;;5072869;28;20021;-87
2022/12/17 21:08:03;;;;;;;25.25;8.50;;;;;;;;;;5030324;28;20116;-85
2022/12/17 21:10:33;;;;;;;24.52;10.55;;;;;;;;;;5038829;28;20040;-85
2022/12/17 21:15:51;;;;;;;9.50;6.35;;;;;;;;;;5040612;28;20036;-89
2022/12/17 21:18:20;;;;;;;15.77;8.20;;;;;;;;;;5053832;28;20034;-87
2022/12/17 21:20:57;;;;;;;14.45;7.60;;;;;;;;;;5035001;28;20127;-87
2022/12/17 21:23:22;;;;;;;18.98;9.48;;;;;;;;;;5048577;28;20036;-86
2022/12/17 21:25:58;;;;;;;17.92;8.35;;;;;;;;;;5031070;28;20025;-86
2022/12/17 21:28:24;;;;;;;14.80;9.20;;;;;;;;;;5044493;28;20017;-86
2022/12/17 21:30:49;;;;;;;18.45;10.43;;;;;;;;;;5018350;28;20246;-86
2022/12/17 21:33:14;;;;;;;22.70;8.85;;;;;;;;;;5016251;28;20025;-87
2022/12/17 21:35:40;;;;;;;18.88;11.05;;;;;;;;;;5024475;28;20025;-86
2022/12/17 21:38:05;;;;;;;10.75;7.50;;;;;;;;;;5035130;28;21269;-85
2022/12/17 21:40:35;;;;;;;11.77;9.15;;;;;;;;;;5035717;28;20032;-86
2022/12/17 21:43:00;;;;;;;9.55;6.25;;;;;;;;;;5026408;28;20031;-84
2022/12/17 21:45:26;;;;;;;14.90;9.57;;;;;;;;;;5037826;28;20588;-86
2022/12/17 21:47:51;;;;;;;15.65;8.75;;;;;;;;;;5036954;28;20467;-87
2022/12/17 21:50:17;;;;;;;15.80;7.85;;;;;;;;;;5037012;28;20043;-84
2022/12/17 21:52:42;;;;;;;18.52;9.77;;;;;;;;;;5042295;28;20441;-84
2022/12/17 21:55:08;;;;;;;11.15;7.97;;;;;;;;;;5042919;28;20021;-84
2022/12/17 21:57:33;;;;;;;17.83;10.95;;;;;;;;;;5043310;28;20045;-86
2022/12/17 21:59:58;;;;;;;16.02;8.85;;;;;;;;;;5044483;28;20028;-86
2022/12/17 22:02:24;;;;;;;16.20;8.32;;;;;;;;;;5027700;28;20024;-86
2022/12/17 22:04:50;;;;;;;14.25;8.90;;;;;;;;;;5025101;28;20059;-86
2022/12/17 22:07:15;;;;;;;15.07;9.32;;;;;;;;;;5044442;28;20026;-87
2022/12/17 22:09:40;;;;;;;16.05;9.10;;;;;;;;;;5046223;28;20502;-86
2022/12/17 22:14:50;;;;;;;16.48;7.88;;;;;;;;;;5045470;28;20032;-84
2022/12/17 22:17:15;;;;;;;13.50;10.20;;;;;;;;;;5047228;28;20030;-87
2022/12/17 22:19:41;;;;;;;16.67;9.60;;;;;;;;;;5049397;28;21880;-85
2022/12/17 22:22:07;;;;;;;15.57;9.38;;;;;;;;;;5046489;28;20039;-86
2022/12/17 22:24:32;;;;;;;14.98;6.95;;;;;;;;;;5045534;28;20017;-85
2022/12/17 22:26:59;;;;;;;16.77;7.38;;;;;;;;;;5045121;28;20024;-83
2022/12/17 22:34:57;;;;;;;13.65;8.18;;;;;;;;;;5048935;28;20452;-86
2022/12/17 22:37:23;;;;;;;17.52;8.85;;;;;;;;;;5044599;28;20029;-84
2022/12/17 22:39:49;;;;;;;16.30;9.23;;;;;;;;;;5030659;28;20051;-86
2022/12/17 22:44:58;;;;;;;19.67;8.77;;;;;;;;;;5041680;28;20028;-86
2022/12/17 22:47:24;;;;;;;12.60;7.47;;;;;;;;;;5023398;28;20025;-84
2022/12/17 22:49:49;;;;;;;13.65;7.95;;;;;;;;;;5045048;28;20477;-84
2022/12/17 22:52:15;;;;;;;9.27;6.95;;;;;;;;;;5026163;28;20418;-86
2022/12/17 22:54:40;;;;;;;16.23;9.95;;;;;;;;;;5024359;28;20474;-85
2022/12/17 22:57:05;;;;;;;22.42;10.63;;;;;;;;;;5031841;28;20029;-84
2022/12/17 22:59:31;;;;;;;14.32;7.30;;;;;;;;;;5045668;28;20029;-86
2022/12/17 23:01:56;;;;;;;8.88;7.82;;;;;;;;;;5045720;28;20059;-86
2022/12/17 23:04:21;;;;;;;11.48;7.47;;;;;;;;;;5043809;28;20037;-86
2022/12/17 23:06:47;;;;;;;16.70;7.47;;;;;;;;;;5027663;28;20405;-84
2022/12/17 23:09:17;;;;;;;11.32;6.45;;;;;;;;;;5053598;28;20025;-85
2022/12/17 23:11:42;;;;;;;21.15;9.15;;;;;;;;;;5053644;28;20112;-85
2022/12/17 23:14:07;;;;;;;12.17;8.73;;;;;;;;;;5054760;28;20040;-84
2022/12/17 23:16:33;;;;;;;12.45;6.40;;;;;;;;;;5036942;28;21365;-85
2022/12/17 23:19:03;;;;;;;15.27;7.47;;;;;;;;;;5047389;28;20059;-85
2022/12/17 23:21:30;;;;;;;14.35;7.30;;;;;;;;;;5030061;28;20072;-86
2022/12/17 23:23:57;;;;;;;13.27;6.43;;;;;;;;;;5045858;28;20037;-85
2022/12/17 23:26:28;;;;;;;11.73;7.80;;;;;;;;;;5032271;28;20033;-87
2022/12/17 23:28:59;;;;;;;23.47;9.17;;;;;;;;;;5035981;28;20024;-84
2022/12/17 23:31:26;;;;;;;14.43;7.80;;;;;;;;;;5047588;28;20021;-84
2022/12/17 23:33:52;;;;;;;14.40;8.47;;;;;;;;;;5034946;28;20029;-87
2022/12/17 23:36:21;;;;;;;8.23;6.30;;;;;;;;;;5050018;28;20092;-86
2022/12/17 23:38:48;;;;;;;38.67;9.50;;;;;;;;;;5037770;28;20055;-87
2022/12/17 23:41:19;;;;;;;11.17;7.57;;;;;;;;;;5041587;28;20466;-87
2022/12/17 23:43:46;;;;;;;10.38;6.93;;;;;;;;;;5058431;28;20028;-86
2022/12/17 23:46:12;;;;;;;16.33;7.30;;;;;;;;;;5058055;28;20025;-86
2022/12/17 23:48:39;;;;;;;14.17;8.60;;;;;;;;;;5039353;28;20079;-86
2022/12/17 23:51:05;;;;;;;11.90;7.43;;;;;;;;;;5041892;28;20091;-87
2022/12/17 23:53:34;;;;;;;12.53;7.20;;;;;;;;;;5057932;28;20029;-87
2022/12/17 23:56:23;;;;;;;22.23;9.77;;;;;;;;;;5031869;28;20024;-86
2022/12/17 23:58:54;;;;;;;13.03;6.80;;;;;;;;;;5030600;28;20017;-86
